Time;durP1;ratioP1;P1;durP2;ratioP2;P2;SDS_P1;SDS_P2;PMS_P1;PMS_P2;Temp;Humidity;BMP_temperature;BMP_pressure;BME280_temperature;BME280_humidity;BME280_pressure;Samples;Min_cycle;Max_cycle;Signal;HPM_P1;HPM_P2
2022/07/25 00:02:10;;;;;;;0.00;0.00;;;20.80;99.90;;;;;;5040558;28;20451;-71
2022/07/25 00:04:40;;;;;;;0.00;0.00;;;20.70;99.90;;;;;;5041312;28;20447;-73
2022/07/25 00:07:10;;;;;;;0.00;0.00;;;20.80;99.90;;;;;;5045302;28;20462;-72
2022/07/25 00:09:38;;;;;;;0.00;0.00;;;20.70;99.90;;;;;;5043014;28;20444;-71
2022/07/25 00:12:06;;;;;;;0.00;0.00;;;20.70;99.90;;;;;;5042941;28;20452;-72
2022/07/25 00:14:37;;;;;;;0.00;0.00;;;20.70;99.90;;;;;;5042787;28;21029;-70
2022/07/25 00:17:05;;;;;;;0.00;0.00;;;20.60;99.90;;;;;;5042429;28;20458;-70
2022/07/25 00:19:33;;;;;;;0.00;0.00;;;20.60;99.90;;;;;;5042693;28;20458;-69
2022/07/25 00:22:01;;;;;;;0.00;0.00;;;20.60;99.90;;;;;;5042183;28;20523;-70
2022/07/25 00:24:30;;;;;;;0.00;0.00;;;20.60;99.90;;;;;;5042184;28;20451;-70
2022/07/25 00:26:58;;;;;;;0.00;0.00;;;20.60;99.90;;;;;;5042004;28;20432;-70
2022/07/25 00:29:26;;;;;;;0.00;0.00;;;20.50;99.90;;;;;;5043296;28;20478;-70
2022/07/25 00:31:54;;;;;;;0.00;0.00;;;20.50;99.90;;;;;;5044267;28;20531;-70
2022/07/25 00:34:22;;;;;;;0.00;0.00;;;20.50;99.90;;;;;;5041882;28;20444;-70
2022/07/25 00:36:49;;;;;;;0.00;0.00;;;20.50;99.90;;;;;;5041960;28;20448;-70
2022/07/25 00:39:17;;;;;;;0.00;0.00;;;20.50;99.90;;;;;;5042063;28;20943;-70
2022/07/25 00:41:46;;;;;;;0.00;0.00;;;20.40;99.90;;;;;;5041517;28;20464;-69
2022/07/25 00:44:23;;;;;;;0.00;0.00;;;20.40;99.90;;;;;;5041306;28;20460;-69
2022/07/25 00:46:51;;;;;;;0.00;0.00;;;20.50;99.90;;;;;;5042188;28;20462;-69
2022/07/25 00:49:19;;;;;;;0.00;0.00;;;20.40;99.90;;;;;;5041835;28;20479;-69
2022/07/25 00:51:48;;;;;;;0.00;0.00;;;20.40;99.90;;;;;;5044060;28;20977;-68
2022/07/25 00:54:16;;;;;;;0.00;0.00;;;20.30;99.90;;;;;;5043680;28;20436;-70
2022/07/25 00:56:44;;;;;;;0.00;0.00;;;20.30;99.90;;;;;;5040751;28;20834;-69
2022/07/25 00:59:13;;;;;;;0.00;0.00;;;20.30;99.90;;;;;;5040828;28;20487;-69
2022/07/25 01:01:41;;;;;;;0.00;0.00;;;20.30;99.90;;;;;;5041099;28;20950;-69
2022/07/25 01:04:09;;;;;;;0.00;0.00;;;20.30;99.90;;;;;;5041242;28;20448;-69
2022/07/25 01:06:37;;;;;;;0.00;0.00;;;20.20;99.90;;;;;;5040189;28;20440;-69
2022/07/25 01:09:07;;;;;;;0.00;0.00;;;20.20;99.90;;;;;;5040744;28;20490;-69
2022/07/25 01:11:34;;;;;;;0.00;0.00;;;20.20;99.90;;;;;;5040424;28;20448;-68
2022/07/25 01:14:03;;;;;;;0.00;0.00;;;20.20;99.90;;;;;;5040622;28;20523;-68
2022/07/25 01:16:33;;;;;;;0.00;0.00;;;20.20;99.90;;;;;;5040800;28;20735;-69
2022/07/25 01:19:01;;;;;;;0.00;0.00;;;20.20;99.90;;;;;;5040359;28;20551;-69
2022/07/25 01:21:30;;;;;;;0.00;0.00;;;20.20;99.90;;;;;;5040262;28;20538;-69
2022/07/25 01:23:58;;;;;;;0.00;0.00;;;20.20;99.90;;;;;;5040506;28;20451;-69
2022/07/25 01:26:26;;;;;;;0.00;0.00;;;20.20;99.90;;;;;;5040387;28;20965;-69
2022/07/25 01:28:55;;;;;;;0.00;0.00;;;20.20;99.90;;;;;;5039841;28;20851;-69
2022/07/25 01:31:23;;;;;;;0.00;0.00;;;20.20;99.90;;;;;;5040163;28;20452;-69
2022/07/25 01:33:51;;;;;;;0.00;0.00;;;20.30;99.90;;;;;;5040491;28;20463;-69
2022/07/25 01:36:19;;;;;;;0.00;0.00;;;20.30;99.90;;;;;;5039889;28;20471;-70
2022/07/25 01:38:48;;;;;;;0.00;0.00;;;20.30;99.90;;;;;;5040120;28;20487;-69
2022/07/25 01:41:20;;;;;;;0.00;0.00;;;20.30;99.90;;;;;;5040023;28;20532;-69
2022/07/25 01:43:49;;;;;;;0.00;0.00;;;20.30;99.90;;;;;;5039862;28;20521;-70
2022/07/25 01:46:17;;;;;;;0.00;0.00;;;20.30;99.90;;;;;;5040430;28;20456;-69
2022/07/25 01:48:45;;;;;;;0.00;0.00;;;20.30;99.90;;;;;;5040058;28;20476;-69
2022/07/25 01:51:13;;;;;;;0.00;0.00;;;20.30;99.90;;;;;;5039528;28;21117;-75
2022/07/25 01:53:41;;;;;;;0.00;0.00;;;20.30;99.90;;;;;;5040219;28;20454;-70
2022/07/25 01:56:12;;;;;;;0.00;0.00;;;20.30;99.90;;;;;;5040143;28;20444;-71
2022/07/25 01:58:41;;;;;;;0.00;0.00;;;20.30;99.90;;;;;;5040180;28;20492;-71
2022/07/25 02:01:08;;;;;;;0.00;0.00;;;20.30;99.90;;;;;;5039645;28;20482;-72
2022/07/25 02:03:36;;;;;;;0.00;0.00;;;20.30;99.90;;;;;;5040530;28;20527;-70
2022/07/25 02:06:07;;;;;;;0.00;0.00;;;20.30;99.90;;;;;;5040803;28;20442;-71
2022/07/25 02:08:35;;;;;;;0.00;0.00;;;20.30;99.90;;;;;;5039878;28;20491;-71
2022/07/25 02:11:03;;;;;;;0.00;0.00;;;20.30;99.90;;;;;;5040355;28;20547;-71
2022/07/25 02:13:32;;;;;;;0.00;0.00;;;20.20;99.90;;;;;;5040416;28;20491;-71
2022/07/25 02:16:00;;;;;;;0.00;0.00;;;20.20;99.90;;;;;;5040844;28;20440;-72
2022/07/25 02:21:06;;;;;;;0.00;0.00;;;20.20;99.90;;;;;;5529874;22;20491;-90
2022/07/25 02:23:41;;;;;;;0.00;0.00;;;20.10;99.90;;;;;;4946281;28;20511;-90
2022/07/25 02:26:10;;;;;;;0.00;0.00;;;20.10;99.90;;;;;;4944808;29;20576;-90
2022/07/25 02:28:40;;;;;;;0.00;0.00;;;20.10;99.90;;;;;;4944075;28;20481;-89
2022/07/25 02:31:08;;;;;;;0.00;0.00;;;20.10;99.90;;;;;;4946698;28;20461;-90
2022/07/25 02:33:37;;;;;;;0.00;0.00;;;20.10;99.90;;;;;;4955095;28;20465;-91
2022/07/25 02:36:05;;;;;;;0.00;0.00;;;20.00;99.90;;;;;;4959394;28;20463;-90
2022/07/25 02:38:32;;;;;;;0.00;0.00;;;20.00;99.90;;;;;;4956108;28;20544;-90
2022/07/25 02:41:00;;;;;;;0.00;0.00;;;20.00;99.90;;;;;;4956030;28;20509;-90
2022/07/25 02:43:28;;;;;;;0.00;0.00;;;20.00;99.90;;;;;;4955562;29;20471;-91
2022/07/25 02:45:57;;;;;;;0.00;0.00;;;20.00;99.90;;;;;;4966215;28;20473;-90
2022/07/25 02:48:25;;;;;;;0.00;0.00;;;20.00;99.90;;;;;;4955859;28;20548;-89
2022/07/25 02:50:54;;;;;;;0.00;0.00;;;20.00;99.90;;;;;;4945117;29;20446;-89
2022/07/25 02:53:21;;;;;;;0.00;0.00;;;19.90;99.90;;;;;;4945080;29;20483;-90
2022/07/25 02:56:09;;;;;;;0.00;0.00;;;19.90;99.90;;;;;;4944999;28;20444;-90
2022/07/25 02:58:40;;;;;;;0.00;0.00;;;19.90;99.90;;;;;;4944667;29;20920;-89
2022/07/25 03:01:10;;;;;;;0.00;0.00;;;19.90;99.90;;;;;;4944391;29;20460;-90
2022/07/25 03:03:38;;;;;;;0.00;0.00;;;19.90;99.90;;;;;;4945150;29;20477;-92
2022/07/25 03:06:07;;;;;;;0.00;0.00;;;19.80;99.90;;;;;;4961328;28;20456;-95
2022/07/25 03:08:34;;;;;;;0.00;0.00;;;19.90;99.90;;;;;;4945787;28;20544;-90
2022/07/25 03:11:02;;;;;;;0.00;0.00;;;19.90;99.90;;;;;;4944781;28;20459;-90
2022/07/25 03:13:31;;;;;;;0.00;0.00;;;19.90;99.90;;;;;;4944058;28;20501;-91
2022/07/25 03:16:00;;;;;;;0.00;0.00;;;19.90;99.90;;;;;;4943893;28;20526;-90
2022/07/25 03:18:30;;;;;;;0.00;0.00;;;20.00;99.90;;;;;;4944166;29;20726;-91
2022/07/25 03:20:58;;;;;;;0.00;0.00;;;20.00;99.90;;;;;;4944252;28;20479;-91
2022/07/25 03:23:27;;;;;;;0.00;0.00;;;20.00;99.90;;;;;;4945373;29;20477;-91
2022/07/25 03:25:55;;;;;;;0.00;0.00;;;20.10;99.90;;;;;;4949963;28;20463;-92
2022/07/25 03:28:24;;;;;;;0.00;0.00;;;20.10;99.90;;;;;;4947456;28;20451;-91
2022/07/25 03:30:52;;;;;;;0.00;0.00;;;20.10;99.90;;;;;;4944944;28;20507;-90
2022/07/25 03:33:20;;;;;;;0.00;0.00;;;20.10;99.90;;;;;;4945948;28;20531;-91
2022/07/25 03:35:49;;;;;;;0.00;0.00;;;20.10;99.90;;;;;;4944395;29;20441;-91
2022/07/25 03:38:17;;;;;;;0.00;0.00;;;20.20;99.90;;;;;;4946669;29;20466;-92
2022/07/25 03:40:46;;;;;;;0.00;0.00;;;20.20;99.90;;;;;;4943408;28;20572;-93
2022/07/25 03:43:13;;;;;;;0.00;0.00;;;20.20;99.90;;;;;;4943435;29;20481;-91
2022/07/25 03:46:01;;;;;;;0.00;0.00;;;20.20;99.90;;;;;;4964117;28;20434;-90
2022/07/25 03:48:38;;;;;;;0.00;0.00;;;20.30;99.90;;;;;;4950225;29;20456;-92
2022/07/25 03:51:08;;;;;;;0.00;0.00;;;20.30;99.90;;;;;;4943757;28;20496;-92
2022/07/25 03:54:00;;;;;;;0.00;0.00;;;20.30;99.90;;;;;;4945551;28;20551;-91
2022/07/25 03:56:24;;;;;;;0.00;0.00;;;20.30;99.90;;;;;;4944253;28;20524;-90
2022/07/25 03:58:52;;;;;;;0.00;0.00;;;20.40;99.90;;;;;;4945506;29;20800;-92
2022/07/25 04:01:20;;;;;;;0.00;0.00;;;20.40;99.90;;;;;;4948257;29;20999;-91
2022/07/25 04:03:49;;;;;;;0.00;0.00;;;20.40;99.90;;;;;;4947082;28;21034;-92
2022/07/25 04:06:18;;;;;;;0.00;0.00;;;20.40;99.90;;;;;;4945602;29;20480;-92
2022/07/25 04:08:46;;;;;;;0.00;0.00;;;20.50;99.90;;;;;;4946136;28;20480;-92
2022/07/25 04:11:14;;;;;;;0.00;0.00;;;20.50;99.90;;;;;;4946578;29;20508;-91
2022/07/25 04:13:42;;;;;;;0.00;0.00;;;20.60;99.90;;;;;;4946297;29;20457;-92
2022/07/25 04:16:11;;;;;;;0.00;0.00;;;20.60;99.90;;;;;;4946293;29;20457;-91
2022/07/25 04:18:45;;;;;;;0.00;0.00;;;20.60;99.90;;;;;;4949648;29;20486;-93
2022/07/25 04:21:16;;;;;;;0.00;0.00;;;20.70;99.90;;;;;;4949569;28;20484;-93
2022/07/25 04:23:45;;;;;;;0.00;0.00;;;20.80;99.90;;;;;;4946204;28;20560;-92
2022/07/25 04:26:13;;;;;;;0.00;0.00;;;20.80;99.90;;;;;;4950547;28;20515;-92
2022/07/25 04:28:41;;;;;;;0.00;0.00;;;20.90;99.90;;;;;;4951901;29;20484;-92
2022/07/25 04:31:11;;;;;;;0.00;0.00;;;20.90;99.90;;;;;;4947895;29;20484;-91
2022/07/25 04:33:40;;;;;;;0.00;0.00;;;21.00;99.90;;;;;;4945467;29;20461;-91
2022/07/25 04:36:08;;;;;;;0.00;0.00;;;21.10;99.90;;;;;;4946356;28;20535;-91
2022/07/25 04:38:37;;;;;;;0.00;0.00;;;21.10;99.90;;;;;;4946012;28;20522;-92
2022/07/25 04:41:06;;;;;;;0.00;0.00;;;21.20;99.90;;;;;;4948597;29;20457;-92
2022/07/25 04:43:34;;;;;;;0.00;0.00;;;21.20;99.90;;;;;;4956371;28;20517;-90
2022/07/25 04:46:02;;;;;;;0.00;0.00;;;21.30;99.90;;;;;;4962171;28;20685;-93
2022/07/25 04:48:30;;;;;;;0.00;0.00;;;21.40;99.90;;;;;;4959427;28;20464;-93
2022/07/25 04:50:58;;;;;;;0.00;0.00;;;21.40;99.90;;;;;;4962668;28;20476;-90
2022/07/25 04:53:26;;;;;;;0.00;0.00;;;21.50;99.90;;;;;;4955061;29;20540;-92
2022/07/25 04:55:57;;;;;;;0.00;0.00;;;21.60;99.90;;;;;;4961409;28;20445;-92
2022/07/25 04:58:27;;;;;;;0.00;0.00;;;21.60;99.90;;;;;;4971861;28;20461;-92
2022/07/25 05:00:55;;;;;;;0.00;0.00;;;21.60;99.90;;;;;;4972523;28;20442;-92
2022/07/25 05:03:29;;;;;;;0.00;0.00;;;21.60;99.90;;;;;;4973029;28;20466;-91
2022/07/25 05:05:58;;;;;;;0.00;0.00;;;21.70;99.90;;;;;;4973216;28;20469;-91
2022/07/25 05:08:27;;;;;;;0.00;0.00;;;21.70;99.90;;;;;;4966057;28;20500;-92
2022/07/25 05:10:55;;;;;;;0.00;0.00;;;21.70;99.90;;;;;;4966797;28;20883;-92
2022/07/25 05:13:29;;;;;;;0.00;0.00;;;21.80;99.90;;;;;;4967073;28;20482;-91
2022/07/25 05:15:57;;;;;;;0.00;0.00;;;21.80;99.90;;;;;;4964106;28;20468;-92
2022/07/25 05:18:26;;;;;;;0.00;0.00;;;21.90;99.90;;;;;;4961356;28;20553;-93
2022/07/25 05:20:55;;;;;;;0.00;0.00;;;21.90;99.90;;;;;;4964541;29;20545;-92
2022/07/25 05:23:25;;;;;;;0.00;0.00;;;21.90;99.90;;;;;;4961139;28;20503;-90
2022/07/25 05:25:57;;;;;;;0.00;0.00;;;21.90;99.90;;;;;;4961825;28;20895;-91
2022/07/25 05:28:29;;;;;;;0.00;0.00;;;22.00;99.90;;;;;;4952017;29;20464;-92
2022/07/25 05:30:59;;;;;;;0.00;0.00;;;22.00;99.90;;;;;;4949920;28;20512;-92
2022/07/25 05:33:28;;;;;;;0.00;0.00;;;22.10;99.90;;;;;;4953080;29;20507;-90
2022/07/25 05:35:56;;;;;;;0.00;0.00;;;22.20;99.90;;;;;;4949112;29;20606;-91
2022/07/25 05:38:24;;;;;;;0.00;0.00;;;22.30;99.90;;;;;;4946558;28;20509;-92
2022/07/25 05:40:52;;;;;;;0.00;0.00;;;22.30;99.90;;;;;;4947584;28;20473;-93
2022/07/25 05:43:20;;;;;;;0.00;0.00;;;22.30;99.90;;;;;;4960293;28;20457;-92
2022/07/25 05:45:52;;;;;;;0.00;0.00;;;22.40;99.90;;;;;;4956234;28;20471;-91
2022/07/25 05:48:20;;;;;;;0.00;0.00;;;22.40;99.90;;;;;;4952675;29;20462;-90
2022/07/25 05:50:50;;;;;;;0.00;0.00;;;22.50;99.90;;;;;;4951580;28;20483;-91
2022/07/25 05:53:18;;;;;;;0.00;0.00;;;22.50;99.90;;;;;;4953116;29;20632;-90
2022/07/25 05:55:47;;;;;;;0.00;0.00;;;22.60;99.90;;;;;;4949054;28;20552;-90
2022/07/25 05:58:15;;;;;;;0.00;0.00;;;22.70;99.90;;;;;;4947603;29;20478;-89
2022/07/25 06:00:44;;;;;;;0.00;0.00;;;22.80;99.90;;;;;;4979931;28;20452;-90
2022/07/25 06:03:13;;;;;;;0.00;0.00;;;22.90;99.90;;;;;;4968353;28;20588;-90
2022/07/25 06:05:41;;;;;;;0.00;0.00;;;23.00;99.90;;;;;;4951324;28;20484;-89
2022/07/25 06:10:52;;;;;;;0.00;0.00;;;23.00;99.90;;;;;;4947207;28;20749;-91
2022/07/25 06:13:21;;;;;;;0.00;0.00;;;23.10;99.90;;;;;;4958921;28;20484;-88
2022/07/25 06:15:51;;;;;;;0.00;0.00;;;23.20;99.90;;;;;;4946114;28;20491;-88
2022/07/25 06:18:20;;;;;;;0.00;0.00;;;23.30;99.90;;;;;;4949883;28;20452;-90
2022/07/25 06:20:52;;;;;;;0.00;0.00;;;23.40;99.90;;;;;;4945914;28;20448;-90
2022/07/25 06:23:20;;;;;;;0.00;0.00;;;23.40;99.90;;;;;;4954024;28;20480;-92
2022/07/25 06:25:54;;;;;;;0.00;0.00;;;23.60;99.90;;;;;;4950908;28;20645;-90
2022/07/25 06:28:22;;;;;;;0.00;0.00;;;23.70;99.90;;;;;;4948823;28;20854;-90
2022/07/25 06:30:52;;;;;;;0.00;0.00;;;23.80;99.90;;;;;;4950078;28;20580;-91
2022/07/25 06:33:22;;;;;;;0.00;0.00;;;23.80;99.90;;;;;;4951017;28;20504;-93
2022/07/25 06:35:50;;;;;;;0.00;0.00;;;23.90;99.90;;;;;;4952718;28;20544;-92
2022/07/25 06:38:23;;;;;;;0.00;0.00;;;24.00;99.90;;;;;;4951012;28;20925;-94
2022/07/25 06:40:51;;;;;;;0.00;0.00;;;24.10;99.90;;;;;;4951600;28;20450;-92
2022/07/25 06:43:19;;;;;;;0.00;0.00;;;24.20;99.90;;;;;;4970404;28;20513;-92
2022/07/25 06:45:50;;;;;;;0.00;0.00;;;24.30;99.90;;;;;;4957224;28;20447;-90
2022/07/25 06:48:18;;;;;;;0.00;0.00;;;24.40;99.90;;;;;;4957613;28;20470;-91
2022/07/25 06:50:52;;;;;;;0.00;0.00;;;24.50;99.90;;;;;;4970407;28;20489;-91
2022/07/25 06:53:20;;;;;;;0.00;0.00;;;24.60;99.90;;;;;;4946601;28;20992;-91
2022/07/25 06:55:49;;;;;;;0.00;0.00;;;24.70;99.90;;;;;;4949973;28;20511;-92
2022/07/25 06:58:17;;;;;;;0.00;0.00;;;24.80;99.90;;;;;;4949426;28;20486;-90
2022/07/25 07:00:55;;;;;;;0.00;0.00;;;25.00;99.90;;;;;;4951160;28;20459;-91
2022/07/25 07:03:23;;;;;;;0.00;0.00;;;25.10;99.90;;;;;;4949298;28;20538;-92
2022/07/25 07:05:53;;;;;;;0.00;0.00;;;25.20;99.90;;;;;;4957227;29;20511;-94
2022/07/25 07:08:24;;;;;;;0.00;0.00;;;25.40;99.90;;;;;;4961064;28;20460;-92
2022/07/25 07:10:56;;;;;;;0.00;0.00;;;25.50;99.90;;;;;;4950584;28;20460;-92
2022/07/25 07:13:24;;;;;;;0.00;0.00;;;25.60;99.90;;;;;;4950707;28;21063;-92
2022/07/25 07:15:53;;;;;;;0.00;0.00;;;25.70;99.90;;;;;;4948530;28;20927;-91
2022/07/25 07:18:21;;;;;;;0.00;0.00;;;25.80;99.90;;;;;;4947647;28;20452;-92
2022/07/25 07:20:50;;;;;;;0.00;0.00;;;25.80;99.90;;;;;;4951078;28;20753;-92
2022/07/25 07:23:23;;;;;;;0.00;0.00;;;25.80;99.90;;;;;;4948428;28;20557;-92
2022/07/25 07:25:54;;;;;;;0.00;0.00;;;25.90;99.90;;;;;;4949950;28;20551;-91
2022/07/25 07:28:22;;;;;;;0.00;0.00;;;25.90;99.90;;;;;;4947799;28;20821;-92
2022/07/25 07:30:53;;;;;;;0.00;0.00;;;26.00;99.90;;;;;;4950066;28;21089;-91
2022/07/25 07:33:43;;;;;;;0.00;0.00;;;26.10;99.90;;;;;;4945976;28;20468;-90
2022/07/25 07:36:12;;;;;;;0.00;0.00;;;26.20;99.90;;;;;;4953396;28;20778;-92
2022/07/25 07:38:44;;;;;;;0.00;0.00;;;26.30;99.90;;;;;;4951095;28;20490;-91
2022/07/25 07:41:14;;;;;;;0.00;0.00;;;26.50;99.90;;;;;;4957223;28;20448;-92
2022/07/25 07:43:43;;;;;;;0.00;0.00;;;26.60;99.90;;;;;;4969666;28;20936;-92
2022/07/25 07:46:11;;;;;;;0.00;0.00;;;26.60;99.90;;;;;;4957291;28;20564;-92
2022/07/25 07:48:40;;;;;;;0.00;0.00;;;26.60;99.90;;;;;;4956335;28;20458;-92
2022/07/25 07:51:08;;;;;;;0.00;0.00;;;26.70;99.90;;;;;;4959201;28;20450;-92
2022/07/25 07:56:24;;;;;;;0.00;0.00;;;26.90;99.90;;;;;;4954760;28;20506;-91
2022/07/25 07:59:37;;;;;;;0.00;0.00;;;27.00;99.90;;;;;;4955701;28;20508;-91
2022/07/25 08:02:20;;;;;;;0.00;0.00;;;27.10;99.90;;;;;;4954231;23;20505;-71
2022/07/25 08:04:48;;;;;;;0.00;0.00;;;27.10;99.90;;;;;;4937471;28;20726;-72
2022/07/25 08:07:16;;;;;;;0.00;0.00;;;27.10;99.90;;;;;;4941366;28;20473;-76
2022/07/25 08:09:44;;;;;;;0.00;0.00;;;27.10;99.90;;;;;;4940715;28;21025;-69
2022/07/25 08:12:13;;;;;;;0.00;0.00;;;27.20;99.90;;;;;;4930343;28;21117;-69
2022/07/25 08:14:41;;;;;;;0.00;0.00;;;27.30;99.90;;;;;;4918167;29;20449;-67
2022/07/25 08:17:09;;;;;;;0.00;0.00;;;27.30;99.90;;;;;;4933646;29;21054;-67
2022/07/25 08:19:39;;;;;;;0.00;0.00;;;27.40;99.90;;;;;;4937608;28;21008;-67
2022/07/25 08:22:07;;;;;;;0.00;0.00;;;27.50;99.90;;;;;;4916877;29;20447;-67
2022/07/25 08:24:35;;;;;;;0.00;0.00;;;27.60;99.90;;;;;;4917058;28;20472;-67
2022/07/25 08:27:03;;;;;;;0.00;0.00;;;27.80;99.90;;;;;;4919719;29;21028;-67
2022/07/25 08:29:32;;;;;;;0.00;0.00;;;27.90;99.90;;;;;;4921121;29;20829;-67
2022/07/25 08:32:00;;;;;;;0.00;0.00;;;28.00;99.90;;;;;;4920955;29;20536;-67
2022/07/25 08:34:27;;;;;;;0.00;0.00;;;28.10;99.90;;;;;;4920943;29;20889;-67
2022/07/25 08:36:55;;;;;;;0.00;0.00;;;28.20;99.90;;;;;;4921145;29;20787;-67
2022/07/25 08:39:23;;;;;;;0.00;0.00;;;28.30;99.90;;;;;;4921185;29;20485;-67
2022/07/25 08:41:51;;;;;;;0.00;0.00;;;28.50;99.90;;;;;;4920893;28;20808;-66
2022/07/25 08:44:20;;;;;;;0.00;0.00;;;28.60;99.90;;;;;;4921263;29;20462;-67
2022/07/25 08:46:50;;;;;;;0.00;0.00;;;28.80;99.90;;;;;;4920713;29;20786;-67
2022/07/25 08:49:18;;;;;;;0.00;0.00;;;29.10;99.90;;;;;;4921403;29;20541;-67
2022/07/25 08:51:46;;;;;;;0.00;0.00;;;29.30;99.90;;;;;;4920875;29;20936;-67
2022/07/25 08:54:18;;;;;;;0.00;0.00;;;29.50;99.90;;;;;;4921180;29;20437;-67
2022/07/25 08:56:49;;;;;;;0.00;0.00;;;29.70;99.90;;;;;;4920667;29;20921;-67
2022/07/25 08:59:17;;;;;;;0.00;0.00;;;29.90;99.90;;;;;;4920786;29;20928;-67
2022/07/25 09:01:45;;;;;;;0.00;0.00;;;30.20;99.90;;;;;;4920369;28;20872;-67
2022/07/25 09:04:14;;;;;;;0.00;0.00;;;30.40;99.90;;;;;;4920915;29;20541;-67
2022/07/25 09:06:50;;;;;;;0.00;0.00;;;30.60;99.90;;;;;;4920311;29;20979;-67
2022/07/25 09:09:18;;;;;;;0.00;0.00;;;30.80;99.90;;;;;;4920617;29;20637;-67
2022/07/25 09:11:47;;;;;;;0.00;0.00;;;30.90;99.70;;;;;;4920250;29;20501;-67
2022/07/25 09:14:14;;;;;;;0.00;0.00;;;31.10;99.60;;;;;;4920463;28;20493;-67
2022/07/25 09:16:44;;;;;;;0.00;0.00;;;31.30;99.70;;;;;;4920459;29;20577;-67
2022/07/25 09:19:15;;;;;;;0.00;0.00;;;31.40;98.90;;;;;;4920669;29;20683;-67
2022/07/25 09:21:45;;;;;;;0.00;0.00;;;31.40;98.80;;;;;;4920118;29;20445;-67
2022/07/25 09:24:15;;;;;;;0.00;0.00;;;31.30;98.80;;;;;;4920280;28;20461;-67
2022/07/25 09:26:48;;;;;;;0.00;0.00;;;31.30;99.00;;;;;;4920790;29;20453;-67
2022/07/25 09:29:17;;;;;;;0.00;0.00;;;31.40;99.00;;;;;;4920348;29;20945;-67
2022/07/25 09:31:45;;;;;;;0.00;0.00;;;31.30;98.30;;;;;;4920409;29;20449;-67
2022/07/25 09:34:28;;;;;;;0.00;0.00;;;31.40;98.50;;;;;;4920464;29;20758;-66
2022/07/25 09:36:59;;;;;;;0.00;0.00;;;31.40;98.20;;;;;;4919491;29;20473;-67
2022/07/25 09:39:34;;;;;;;0.00;0.00;;;31.40;98.00;;;;;;4920109;29;20536;-67
2022/07/25 09:42:03;;;;;;;0.00;0.00;;;31.30;97.90;;;;;;4920034;29;20441;-67
2022/07/25 09:44:31;;;;;;;0.00;0.00;;;31.40;98.00;;;;;;4920169;28;20473;-66
2022/07/25 09:47:09;;;;;;;0.00;0.00;;;31.40;97.80;;;;;;4920079;29;20445;-67
2022/07/25 09:49:41;;;;;;;0.00;0.00;;;31.50;97.70;;;;;;4919827;29;20444;-66
2022/07/25 09:52:09;;;;;;;0.00;0.00;;;31.50;97.50;;;;;;4920231;29;20715;-67
2022/07/25 09:54:37;;;;;;;0.00;0.00;;;31.40;97.50;;;;;;4919864;29;20468;-67
2022/07/25 09:57:05;;;;;;;0.00;0.00;;;31.40;97.60;;;;;;4919521;29;20750;-66
2022/07/25 09:59:35;;;;;;;0.00;0.00;;;31.40;97.50;;;;;;4919840;29;20773;-67
2022/07/25 10:02:08;;;;;;;0.00;0.00;;;31.50;97.30;;;;;;4920333;29;20837;-67
2022/07/25 10:04:47;;;;;;;0.00;0.00;;;31.70;97.30;;;;;;4921476;29;20832;-69
2022/07/25 10:07:19;;;;;;;0.00;0.00;;;31.80;97.00;;;;;;4920689;29;20555;-67
2022/07/25 10:09:49;;;;;;;0.00;0.00;;;31.90;97.10;;;;;;4921337;29;20816;-67
2022/07/25 10:12:20;;;;;;;0.00;0.00;;;32.10;97.10;;;;;;4920022;28;20473;-67
2022/07/25 10:15:04;;;;;;;0.00;0.00;;;32.20;97.10;;;;;;4920005;29;20526;-67
2022/07/25 10:17:32;;;;;;;0.00;0.00;;;32.40;96.90;;;;;;4919958;29;21149;-67
2022/07/25 10:20:02;;;;;;;0.00;0.00;;;32.50;96.80;;;;;;4920163;29;20809;-68
2022/07/25 10:22:40;;;;;;;0.00;0.00;;;32.70;96.70;;;;;;4919362;29;20521;-67
2022/07/25 10:25:27;;;;;;;0.00;0.00;;;32.80;96.30;;;;;;4919886;29;20848;-67
2022/07/25 10:28:02;;;;;;;0.00;0.00;;;32.80;96.00;;;;;;4919517;29;20910;-67
2022/07/25 10:30:35;;;;;;;0.00;0.00;;;33.00;96.10;;;;;;4919347;28;20727;-67
2022/07/25 10:33:05;;;;;;;0.00;0.00;;;33.00;95.80;;;;;;4919680;29;20485;-67
2022/07/25 10:35:34;;;;;;;0.00;0.00;;;33.10;95.90;;;;;;4919788;29;20516;-67
2022/07/25 10:38:04;;;;;;;0.00;0.00;;;33.20;96.00;;;;;;4919872;29;20759;-67
2022/07/25 10:40:35;;;;;;;0.00;0.00;;;33.30;95.90;;;;;;4919968;29;20560;-68
2022/07/25 10:43:08;;;;;;;0.00;0.00;;;33.20;95.30;;;;;;4919979;29;20533;-67
2022/07/25 10:45:43;;;;;;;0.00;0.00;;;33.20;95.50;;;;;;4920181;28;20547;-68
2022/07/25 10:48:20;;;;;;;0.00;0.00;;;33.10;95.30;;;;;;4970948;28;20484;-70
2022/07/25 10:50:56;;;;;;;0.00;0.00;;;33.00;95.30;;;;;;4927336;28;20985;-70
2022/07/25 10:53:30;;;;;;;0.00;0.00;;;33.10;95.40;;;;;;4931121;28;20483;-72
2022/07/25 10:56:02;;;;;;;0.00;0.00;;;33.10;95.50;;;;;;4929684;28;20450;-70
2022/07/25 10:58:48;;;;;;;0.00;0.00;;;33.20;95.50;;;;;;4928100;28;20493;-72
2022/07/25 11:01:21;;;;;;;0.00;0.00;;;33.20;95.50;;;;;;4929505;28;20456;-69
2022/07/25 11:03:49;;;;;;;0.00;0.00;;;33.20;95.30;;;;;;4929110;28;20711;-71
2022/07/25 11:06:31;;;;;;;0.00;0.00;;;33.30;95.20;;;;;;4927599;29;20790;-70
2022/07/25 11:09:00;;;;;;;0.00;0.00;;;33.20;95.40;;;;;;4928552;28;20586;-72
2022/07/25 11:11:39;;;;;;;0.00;0.00;;;33.20;95.40;;;;;;4939201;28;20445;-72
2022/07/25 11:14:17;;;;;;;0.00;0.00;;;33.20;95.00;;;;;;4922400;28;21003;-72
2022/07/25 11:16:47;;;;;;;0.00;0.00;;;33.10;95.00;;;;;;4919284;29;20470;-71
2022/07/25 11:19:20;;;;;;;0.00;0.00;;;33.10;95.10;;;;;;4927429;28;20479;-71
2022/07/25 11:21:51;;;;;;;0.00;0.00;;;33.00;95.10;;;;;;4934448;28;20449;-71
2022/07/25 11:24:19;;;;;;;0.00;0.00;;;33.00;95.00;;;;;;4918578;29;20936;-71
2022/07/25 11:26:49;;;;;;;0.00;0.00;;;32.90;94.90;;;;;;4925093;28;20468;-74
2022/07/25 11:29:20;;;;;;;0.00;0.00;;;32.90;94.90;;;;;;4927590;28;20485;-75
2022/07/25 11:31:52;;;;;;;0.00;0.00;;;32.90;94.80;;;;;;4918276;29;20458;-74
2022/07/25 11:34:23;;;;;;;0.00;0.00;;;32.90;94.90;;;;;;4918000;29;20512;-75
2022/07/25 11:36:56;;;;;;;0.00;0.00;;;32.90;94.80;;;;;;4918236;28;20652;-75
2022/07/25 11:39:25;;;;;;;0.00;0.00;;;32.90;94.70;;;;;;4918480;29;20966;-74
2022/07/25 11:42:04;;;;;;;0.00;0.00;;;32.90;94.70;;;;;;4928367;28;20461;-70
2022/07/25 11:44:37;;;;;;;0.00;0.00;;;32.90;94.70;;;;;;4937541;28;20436;-70
2022/07/25 11:47:09;;;;;;;0.00;0.00;;;32.90;94.70;;;;;;4926764;28;20473;-70
2022/07/25 11:49:45;;;;;;;0.00;0.00;;;32.90;94.60;;;;;;4942405;28;20456;-80
2022/07/25 11:52:23;;;;;;;0.00;0.00;;;33.00;94.70;;;;;;4930986;28;20515;-69
2022/07/25 11:54:54;;;;;;;0.00;0.00;;;33.20;94.80;;;;;;4935288;29;20491;-69
2022/07/25 11:57:24;;;;;;;0.00;0.00;;;33.40;94.90;;;;;;4928962;28;20564;-71
2022/07/25 11:59:52;;;;;;;0.00;0.00;;;33.40;94.40;;;;;;4936491;28;20532;-69
2022/07/25 12:02:24;;;;;;;0.00;0.00;;;33.40;94.40;;;;;;4938021;28;20536;-69
2022/07/25 12:04:57;;;;;;;0.00;0.00;;;33.40;94.20;;;;;;4936990;28;20441;-69
2022/07/25 12:07:44;;;;;;;0.00;0.00;;;33.40;94.30;;;;;;4937228;28;20468;-69
2022/07/25 12:10:15;;;;;;;0.00;0.00;;;33.40;93.90;;;;;;4931394;28;20567;-69
2022/07/25 12:12:48;;;;;;;0.00;0.00;;;33.30;93.90;;;;;;4934539;28;20485;-69
2022/07/25 12:15:19;;;;;;;0.00;0.00;;;33.30;94.00;;;;;;4934008;28;20568;-69
2022/07/25 12:17:47;;;;;;;0.00;0.00;;;33.40;94.30;;;;;;4931425;28;21095;-70
2022/07/25 12:20:17;;;;;;;0.00;0.00;;;33.50;93.70;;;;;;4937807;28;21191;-69
2022/07/25 12:22:47;;;;;;;0.00;0.00;;;33.60;93.70;;;;;;4923998;28;20458;-69
2022/07/25 12:25:15;;;;;;;0.00;0.00;;;33.80;93.80;;;;;;4934165;28;20517;-70
2022/07/25 12:27:45;;;;;;;0.00;0.00;;;34.00;93.40;;;;;;4929966;28;20513;-69
2022/07/25 12:30:14;;;;;;;0.00;0.00;;;34.00;93.40;;;;;;4928250;29;20450;-69
2022/07/25 12:32:42;;;;;;;0.00;0.00;;;34.00;93.00;;;;;;4919261;29;20504;-69
2022/07/25 12:35:12;;;;;;;0.00;0.00;;;33.90;92.80;;;;;;4935688;29;20484;-69
2022/07/25 12:37:41;;;;;;;0.00;0.00;;;33.80;92.70;;;;;;4937720;28;20486;-72
2022/07/25 12:40:12;;;;;;;0.00;0.00;;;33.70;92.50;;;;;;4936089;28;20461;-69
2022/07/25 12:42:40;;;;;;;0.00;0.00;;;33.60;92.90;;;;;;4936622;28;20470;-70
2022/07/25 12:45:09;;;;;;;0.00;0.00;;;33.70;92.70;;;;;;4936061;28;20452;-70
2022/07/25 12:47:37;;;;;;;0.00;0.00;;;33.60;92.90;;;;;;4918012;29;20488;-68
2022/07/25 12:50:05;;;;;;;0.00;0.00;;;33.60;93.20;;;;;;4917780;29;20453;-67
2022/07/25 12:52:34;;;;;;;0.00;0.00;;;33.60;93.20;;;;;;4917836;29;20536;-67
2022/07/25 12:55:02;;;;;;;0.00;0.00;;;33.50;93.40;;;;;;4917996;29;20578;-67
2022/07/25 12:57:31;;;;;;;0.00;0.00;;;33.50;93.50;;;;;;4940913;28;20589;-67
2022/07/25 12:59:59;;;;;;;0.00;0.00;;;33.50;93.50;;;;;;4938780;28;20445;-67
2022/07/25 13:02:26;;;;;;;0.00;0.00;;;33.60;93.40;;;;;;4955663;28;20542;-67
2022/07/25 13:04:54;;;;;;;0.00;0.00;;;33.50;93.30;;;;;;4948599;28;20437;-67
2022/07/25 13:07:22;;;;;;;0.00;0.00;;;33.40;93.20;;;;;;4936944;28;20498;-67
2022/07/25 13:09:50;;;;;;;0.00;0.00;;;33.30;93.30;;;;;;4938298;28;20458;-74
2022/07/25 13:12:19;;;;;;;0.00;0.00;;;33.20;93.70;;;;;;4938035;28;20865;-74